Time;durP1;ratioP1;P1;durP2;ratioP2;P2;SDS_P1;SDS_P2;PMS_P1;PMS_P2;Temp;Humidity;BMP_temperature;BMP_pressure;BME280_temperature;BME280_humidity;BME280_pressure;Samples;Min_cycle;Max_cycle;Signal;HPM_P1;HPM_P2
2021/07/23 00:00:06;;;;;;;;;;;16.60;99.90;;;;;;5073708;28;19924;-84
2021/07/23 00:02:31;;;;;;;;;;;16.60;99.90;;;;;;5067155;28;19930;-84
2021/07/23 00:04:57;;;;;;;;;;;16.60;99.90;;;;;;5083557;28;19928;-85
2021/07/23 00:07:23;;;;;;;;;;;16.60;99.90;;;;;;5068972;28;20296;-85
2021/07/23 00:09:48;;;;;;;;;;;16.70;99.90;;;;;;5062881;28;19976;-82
2021/07/23 00:12:14;;;;;;;;;;;16.70;99.90;;;;;;5068805;28;20041;-82
2021/07/23 00:14:40;;;;;;;;;;;16.70;99.90;;;;;;5051495;28;19929;-83
2021/07/23 00:17:05;;;;;;;;;;;16.70;99.90;;;;;;5067663;28;20027;-82
2021/07/23 00:19:31;;;;;;;;;;;16.70;99.90;;;;;;5059722;28;19924;-83
2021/07/23 00:22:00;;;;;;;;;;;16.70;99.90;;;;;;5055619;28;19933;-86
2021/07/23 00:24:26;;;;;;;;;;;16.80;99.90;;;;;;5051588;28;19964;-84
2021/07/23 00:26:52;;;;;;;;;;;16.80;99.90;;;;;;5069614;28;20027;-83
2021/07/23 00:29:19;;;;;;;;;;;16.80;99.90;;;;;;5068608;28;19931;-84
2021/07/23 00:31:45;;;;;;;;;;;16.80;99.90;;;;;;5051390;28;20002;-83
2021/07/23 00:34:10;;;;;;;;;;;16.80;99.90;;;;;;5058548;28;20381;-83
2021/07/23 00:36:36;;;;;;;;;;;16.90;99.90;;;;;;5067994;28;20360;-83
2021/07/23 00:39:02;;;;;;;;;;;16.90;99.90;;;;;;5088125;28;19958;-83
2021/07/23 00:41:27;;;;;;;;;;;16.90;99.90;;;;;;5071905;28;19967;-83
2021/07/23 00:43:53;;;;;;;;;;;16.90;99.90;;;;;;5088322;28;19973;-84
2021/07/23 00:46:19;;;;;;;;;;;17.00;99.90;;;;;;5054597;28;19924;-83
2021/07/23 00:48:45;;;;;;;;;;;16.90;99.90;;;;;;5073127;28;19932;-83
2021/07/23 00:51:11;;;;;;;;;;;16.90;99.90;;;;;;5072193;28;19924;-84
2021/07/23 00:53:37;;;;;;;;;;;16.90;99.90;;;;;;5054759;28;20415;-83
2021/07/23 00:56:02;;;;;;;;;;;16.90;99.90;;;;;;5059857;28;19929;-86
2021/07/23 00:58:29;;;;;;;;;;;16.90;99.90;;;;;;5088492;28;19925;-82
2021/07/23 01:00:57;;;;;;;;;;;16.90;99.90;;;;;;5070394;28;19931;-83
2021/07/23 01:03:23;;;;;;;;;;;16.90;99.90;;;;;;5071261;28;19924;-84
2021/07/23 01:05:50;;;;;;;;;;;16.90;99.90;;;;;;5069897;28;19935;-84
2021/07/23 01:08:16;;;;;;;;;;;16.90;99.90;;;;;;5071993;28;19934;-83
2021/07/23 01:10:42;;;;;;;;;;;16.90;99.90;;;;;;5054676;28;20406;-83
2021/07/23 01:13:07;;;;;;;;;;;16.90;99.90;;;;;;5070598;28;19929;-83
2021/07/23 01:15:33;;;;;;;;;;;16.90;99.90;;;;;;5071440;28;19972;-84
2021/07/23 01:17:59;;;;;;;;;;;16.90;99.90;;;;;;5072305;28;19924;-83
2021/07/23 01:20:26;;;;;;;;;;;16.90;99.90;;;;;;5070194;28;19935;-83
2021/07/23 01:22:57;;;;;;;;;;;16.90;99.90;;;;;;5072006;28;19936;-83
2021/07/23 01:25:23;;;;;;;;;;;16.90;99.90;;;;;;5071832;28;19931;-83
2021/07/23 01:27:50;;;;;;;;;;;17.00;99.90;;;;;;5071951;28;19936;-84
2021/07/23 01:30:17;;;;;;;;;;;16.90;99.90;;;;;;5070395;28;19924;-83
2021/07/23 01:32:43;;;;;;;;;;;16.90;99.90;;;;;;5072454;28;20462;-84
2021/07/23 01:35:09;;;;;;;;;;;16.90;99.90;;;;;;5064004;28;19925;-84
2021/07/23 01:37:35;;;;;;;;;;;16.90;99.90;;;;;;5072470;28;20356;-83
2021/07/23 01:40:01;;;;;;;;;;;16.90;99.90;;;;;;5070943;28;19960;-83
2021/07/23 01:42:27;;;;;;;;;;;16.90;99.90;;;;;;5071469;28;19979;-83
2021/07/23 01:44:53;;;;;;;;;;;16.90;99.90;;;;;;5046915;28;20800;-86
2021/07/23 01:47:18;;;;;;;;;;;16.80;99.90;;;;;;5042709;28;19928;-83
2021/07/23 01:49:44;;;;;;;;;;;16.80;99.90;;;;;;5053921;28;19924;-84
2021/07/23 01:52:10;;;;;;;;;;;16.80;99.90;;;;;;5071401;28;20027;-83
2021/07/23 01:54:36;;;;;;;;;;;16.80;99.90;;;;;;5071144;28;20016;-84
2021/07/23 01:57:02;;;;;;;;;;;16.90;99.90;;;;;;5069448;28;19931;-84
2021/07/23 01:59:28;;;;;;;;;;;16.80;99.90;;;;;;5070841;28;19931;-83
2021/07/23 02:01:56;;;;;;;;;;;16.80;99.90;;;;;;5070727;28;19924;-82
2021/07/23 02:04:22;;;;;;;;;;;16.80;99.90;;;;;;5044686;28;19924;-83
2021/07/23 02:06:48;;;;;;;;;;;16.80;99.90;;;;;;5067418;28;20304;-84
2021/07/23 02:09:13;;;;;;;;;;;16.80;99.90;;;;;;5070729;28;19924;-84
2021/07/23 02:11:39;;;;;;;;;;;16.70;99.90;;;;;;5070528;28;19947;-83
2021/07/23 02:14:07;;;;;;;;;;;16.70;99.90;;;;;;5069577;28;19990;-85
2021/07/23 02:16:36;;;;;;;;;;;16.70;99.90;;;;;;5070035;28;19924;-83
2021/07/23 02:19:06;;;;;;;;;;;16.70;99.90;;;;;;5069755;28;19929;-83
2021/07/23 02:21:35;;;;;;;;;;;16.70;99.90;;;;;;5053191;28;19960;-83
2021/07/23 02:24:01;;;;;;;;;;;16.70;99.90;;;;;;5070069;28;20822;-83
2021/07/23 02:26:27;;;;;;;;;;;16.70;99.90;;;;;;5085664;28;19939;-83
2021/07/23 02:28:53;;;;;;;;;;;16.60;99.90;;;;;;5067905;28;19925;-83
2021/07/23 02:31:18;;;;;;;;;;;16.60;99.90;;;;;;5066826;28;20022;-84
2021/07/23 02:33:45;;;;;;;;;;;16.60;99.90;;;;;;5086673;28;20015;-83
2021/07/23 02:36:11;;;;;;;;;;;16.70;99.90;;;;;;5068362;28;19978;-83
2021/07/23 02:38:36;;;;;;;;;;;16.60;99.90;;;;;;5052927;28;19978;-83
2021/07/23 02:41:02;;;;;;;;;;;16.70;99.90;;;;;;5069378;28;19925;-83
2021/07/23 02:43:28;;;;;;;;;;;16.70;99.90;;;;;;5067746;28;19974;-83
2021/07/23 02:45:53;;;;;;;;;;;16.70;99.90;;;;;;5062684;28;19940;-83
2021/07/23 02:48:20;;;;;;;;;;;16.70;99.90;;;;;;5085219;28;19931;-83
2021/07/23 02:50:45;;;;;;;;;;;16.70;99.90;;;;;;5070746;28;19928;-84
2021/07/23 02:53:12;;;;;;;;;;;16.70;99.90;;;;;;5069753;28;19928;-84
2021/07/23 02:55:37;;;;;;;;;;;16.60;99.90;;;;;;5061491;28;19932;-84
2021/07/23 02:58:03;;;;;;;;;;;16.70;99.90;;;;;;5076109;28;20020;-84
2021/07/23 03:00:29;;;;;;;;;;;16.60;99.90;;;;;;5048425;28;19920;-85
2021/07/23 03:02:55;;;;;;;;;;;16.60;99.90;;;;;;5081530;28;19982;-84
2021/07/23 03:05:20;;;;;;;;;;;16.60;99.90;;;;;;5058920;28;20732;-84
2021/07/23 03:07:53;;;;;;;;;;;16.60;99.90;;;;;;5085910;28;19925;-84
2021/07/23 03:10:19;;;;;;;;;;;16.50;99.90;;;;;;5069245;28;19981;-84
2021/07/23 03:12:45;;;;;;;;;;;16.50;99.90;;;;;;5052044;28;20693;-84
2021/07/23 03:15:11;;;;;;;;;;;16.50;99.90;;;;;;5085018;28;20012;-87
2021/07/23 03:17:37;;;;;;;;;;;16.50;99.90;;;;;;5035883;28;19936;-85
2021/07/23 03:20:03;;;;;;;;;;;16.50;99.90;;;;;;5069009;28;19931;-83
2021/07/23 03:22:29;;;;;;;;;;;16.50;99.90;;;;;;5069110;28;20375;-84
2021/07/23 03:24:55;;;;;;;;;;;16.50;99.90;;;;;;5067151;28;20027;-84
2021/07/23 03:27:21;;;;;;;;;;;16.50;99.90;;;;;;5051461;28;19940;-83
2021/07/23 03:29:47;;;;;;;;;;;16.50;99.90;;;;;;5084382;28;20022;-83
2021/07/23 03:32:12;;;;;;;;;;;16.50;99.90;;;;;;5062291;28;20031;-85
2021/07/23 03:34:38;;;;;;;;;;;16.50;99.90;;;;;;5068669;28;19925;-83
2021/07/23 03:37:04;;;;;;;;;;;16.50;99.90;;;;;;5068926;28;20332;-84
2021/07/23 03:39:30;;;;;;;;;;;16.50;99.90;;;;;;5067596;28;20542;-83
2021/07/23 03:41:55;;;;;;;;;;;16.50;99.90;;;;;;5068646;28;19932;-83
2021/07/23 03:44:21;;;;;;;;;;;16.50;99.90;;;;;;5067722;28;20377;-84
2021/07/23 03:46:47;;;;;;;;;;;16.50;99.90;;;;;;5067929;28;20404;-83
2021/07/23 03:49:12;;;;;;;;;;;16.50;99.90;;;;;;5084281;28;20281;-85
2021/07/23 03:51:38;;;;;;;;;;;16.50;99.90;;;;;;5069089;28;19977;-83
2021/07/23 03:54:04;;;;;;;;;;;16.60;99.90;;;;;;5068637;28;19928;-83
2021/07/23 03:56:30;;;;;;;;;;;16.50;99.90;;;;;;5037353;28;20023;-83
2021/07/23 03:58:56;;;;;;;;;;;16.50;99.90;;;;;;5068042;28;19924;-83
2021/07/23 04:01:22;;;;;;;;;;;16.50;99.90;;;;;;5069216;28;20273;-83
2021/07/23 04:03:47;;;;;;;;;;;16.50;99.90;;;;;;5068159;28;19950;-82
2021/07/23 04:06:13;;;;;;;;;;;16.50;99.90;;;;;;5059840;28;20403;-85
2021/07/23 04:08:40;;;;;;;;;;;16.50;99.90;;;;;;5064812;28;20372;-83
2021/07/23 04:11:13;;;;;;;;;;;16.50;99.90;;;;;;5067294;28;19971;-83
2021/07/23 04:13:38;;;;;;;;;;;16.50;99.90;;;;;;5056792;28;19925;-83
2021/07/23 04:16:04;;;;;;;;;;;16.50;99.90;;;;;;5082652;28;19993;-82
2021/07/23 04:18:30;;;;;;;;;;;16.50;99.90;;;;;;5084426;28;20027;-82
2021/07/23 04:20:55;;;;;;;;;;;16.50;99.90;;;;;;5069253;28;19925;-83
2021/07/23 04:23:21;;;;;;;;;;;16.50;99.90;;;;;;5067510;28;19974;-84
2021/07/23 04:25:47;;;;;;;;;;;16.50;99.90;;;;;;5067982;28;19928;-82
2021/07/23 04:28:16;;;;;;;;;;;16.50;99.90;;;;;;5067618;28;19967;-86
2021/07/23 04:30:41;;;;;;;;;;;16.50;99.90;;;;;;5050958;28;20415;-82
2021/07/23 04:33:07;;;;;;;;;;;16.40;99.90;;;;;;5051561;28;20019;-83
2021/07/23 04:35:33;;;;;;;;;;;16.50;99.90;;;;;;5067426;28;19959;-82
2021/07/23 04:37:58;;;;;;;;;;;16.50;99.90;;;;;;5069238;28;19994;-82
2021/07/23 04:40:24;;;;;;;;;;;16.50;99.90;;;;;;5050490;28;20381;-82
2021/07/23 04:42:50;;;;;;;;;;;16.50;99.90;;;;;;5067752;28;19973;-82
2021/07/23 04:45:16;;;;;;;;;;;16.50;99.90;;;;;;5065451;28;19936;-84
2021/07/23 04:47:42;;;;;;;;;;;16.50;99.90;;;;;;5057166;28;19933;-83
2021/07/23 04:50:08;;;;;;;;;;;16.50;99.90;;;;;;5067592;28;20261;-83
2021/07/23 04:52:33;;;;;;;;;;;16.50;99.90;;;;;;5050496;28;19936;-83
2021/07/23 04:55:07;;;;;;;;;;;16.50;99.90;;;;;;5068776;28;19928;-83
2021/07/23 04:57:33;;;;;;;;;;;16.50;99.90;;;;;;5051171;28;19931;-82
2021/07/23 04:59:59;;;;;;;;;;;16.50;99.90;;;;;;5050992;28;19928;-82
2021/07/23 05:02:25;;;;;;;;;;;16.50;99.90;;;;;;5064926;28;19989;-85
2021/07/23 05:04:51;;;;;;;;;;;16.50;99.90;;;;;;5050860;28;19924;-82
2021/07/23 05:07:20;;;;;;;;;;;16.50;99.90;;;;;;5068474;28;20440;-85
2021/07/23 05:09:46;;;;;;;;;;;16.50;99.90;;;;;;5068703;28;19925;-83
2021/07/23 05:12:12;;;;;;;;;;;16.50;99.90;;;;;;5084040;28;19929;-83
2021/07/23 05:14:38;;;;;;;;;;;16.50;99.90;;;;;;5068319;28;19924;-82
2021/07/23 05:17:03;;;;;;;;;;;16.50;99.90;;;;;;5067993;28;19994;-82
2021/07/23 05:19:30;;;;;;;;;;;16.50;99.90;;;;;;5038609;28;19944;-83
2021/07/23 05:21:55;;;;;;;;;;;16.50;99.90;;;;;;5069676;28;19932;-85
2021/07/23 05:24:21;;;;;;;;;;;16.50;99.90;;;;;;5071868;28;19932;-86
2021/07/23 05:26:47;;;;;;;;;;;16.60;99.90;;;;;;5054494;28;20414;-84
2021/07/23 05:29:12;;;;;;;;;;;16.60;99.90;;;;;;5054330;28;19928;-84
2021/07/23 05:31:41;;;;;;;;;;;16.60;99.90;;;;;;5070335;28;20478;-83
2021/07/23 05:34:07;;;;;;;;;;;16.60;99.90;;;;;;5053039;28;19952;-84
2021/07/23 05:36:32;;;;;;;;;;;16.60;99.90;;;;;;5070060;28;19971;-84
2021/07/23 05:38:58;;;;;;;;;;;16.60;99.90;;;;;;5072284;28;20627;-83
2021/07/23 05:41:24;;;;;;;;;;;16.60;99.90;;;;;;5071790;28;20013;-84
2021/07/23 05:43:50;;;;;;;;;;;16.60;99.90;;;;;;5082684;28;19977;-83
2021/07/23 05:46:15;;;;;;;;;;;16.60;99.90;;;;;;5054276;28;19964;-84
2021/07/23 05:48:41;;;;;;;;;;;16.60;99.90;;;;;;5069700;28;20011;-84
2021/07/23 05:51:08;;;;;;;;;;;16.60;99.90;;;;;;5070511;28;20360;-84
2021/07/23 05:53:34;;;;;;;;;;;16.60;99.90;;;;;;5086380;28;20015;-84
2021/07/23 05:56:04;;;;;;;;;;;16.60;99.90;;;;;;5054090;28;20396;-83
2021/07/23 05:58:30;;;;;;;;;;;16.70;99.90;;;;;;5070912;28;19935;-84
2021/07/23 06:00:56;;;;;;;;;;;16.70;99.90;;;;;;5071977;28;19932;-84
2021/07/23 06:03:22;;;;;;;;;;;16.70;99.90;;;;;;5087316;28;20315;-87
2021/07/23 06:05:48;;;;;;;;;;;16.80;99.90;;;;;;5058883;28;20368;-84
2021/07/23 06:08:13;;;;;;;;;;;16.80;99.90;;;;;;5070830;28;19929;-84
2021/07/23 06:10:39;;;;;;;;;;;16.80;99.90;;;;;;5069055;28;20593;-82
2021/07/23 06:13:05;;;;;;;;;;;16.80;99.90;;;;;;5070375;28;20372;-85
2021/07/23 06:15:31;;;;;;;;;;;16.90;99.90;;;;;;5068781;28;20020;-84
2021/07/23 06:18:00;;;;;;;;;;;16.80;99.90;;;;;;5070065;28;19990;-83
2021/07/23 06:20:26;;;;;;;;;;;16.80;99.90;;;;;;5065182;28;19928;-87
2021/07/23 06:22:58;;;;;;;;;;;16.80;99.90;;;;;;5068737;28;19925;-83
2021/07/23 06:25:24;;;;;;;;;;;16.90;99.90;;;;;;5070485;28;19925;-86
2021/07/23 06:27:50;;;;;;;;;;;16.90;99.90;;;;;;5051950;28;20447;-85
2021/07/23 06:30:16;;;;;;;;;;;16.90;99.90;;;;;;5069213;28;19924;-83
2021/07/23 06:32:41;;;;;;;;;;;17.00;99.90;;;;;;5068420;28;19936;-85
2021/07/23 06:35:07;;;;;;;;;;;17.10;99.90;;;;;;5070787;28;19929;-85
2021/07/23 06:37:33;;;;;;;;;;;17.10;99.90;;;;;;5056292;28;19938;-85
2021/07/23 06:39:59;;;;;;;;;;;17.20;99.90;;;;;;5085202;28;19935;-84
2021/07/23 06:42:24;;;;;;;;;;;17.30;99.90;;;;;;5070138;28;19924;-87
2021/07/23 06:44:50;;;;;;;;;;;17.30;99.90;;;;;;5065586;28;19924;-83
2021/07/23 06:47:17;;;;;;;;;;;17.40;99.90;;;;;;5062740;28;19933;-83
2021/07/23 06:49:43;;;;;;;;;;;17.40;99.90;;;;;;5069253;28;19970;-83
2021/07/23 06:52:09;;;;;;;;;;;17.40;99.90;;;;;;5085295;28;19928;-83
2021/07/23 06:54:35;;;;;;;;;;;17.50;99.90;;;;;;5069622;28;19924;-83
2021/07/23 06:57:04;;;;;;;;;;;17.50;99.90;;;;;;5085414;28;19982;-84
2021/07/23 06:59:31;;;;;;;;;;;17.60;99.90;;;;;;5082908;28;19967;-84
2021/07/23 07:01:57;;;;;;;;;;;17.70;99.90;;;;;;5070514;28;20277;-84
2021/07/23 07:04:23;;;;;;;;;;;17.70;99.90;;;;;;5069852;28;20295;-83
2021/07/23 07:06:49;;;;;;;;;;;17.70;99.90;;;;;;5061221;28;19932;-84
2021/07/23 07:09:14;;;;;;;;;;;17.80;99.90;;;;;;5068944;28;19925;-84
2021/07/23 07:11:40;;;;;;;;;;;17.80;99.90;;;;;;5068278;28;19928;-84
2021/07/23 07:14:06;;;;;;;;;;;17.80;99.90;;;;;;5052563;28;19935;-84
2021/07/23 07:16:32;;;;;;;;;;;17.80;99.90;;;;;;5066482;28;20308;-84
2021/07/23 07:18:57;;;;;;;;;;;17.90;99.90;;;;;;5064001;28;20390;-85
2021/07/23 07:21:23;;;;;;;;;;;17.90;99.90;;;;;;5068563;28;20418;-83
2021/07/23 07:23:49;;;;;;;;;;;18.00;99.90;;;;;;5085135;28;20463;-83
2021/07/23 07:26:14;;;;;;;;;;;18.00;99.90;;;;;;5068675;28;19956;-83
2021/07/23 07:28:40;;;;;;;;;;;18.10;99.90;;;;;;5059616;28;20429;-83
2021/07/23 07:31:06;;;;;;;;;;;18.10;99.90;;;;;;5068847;28;20284;-83
2021/07/23 07:33:33;;;;;;;;;;;18.10;99.90;;;;;;5069159;28;20007;-84
2021/07/23 07:35:58;;;;;;;;;;;18.20;99.90;;;;;;5051990;28;20024;-83
2021/07/23 07:38:24;;;;;;;;;;;18.20;99.90;;;;;;5078391;28;19924;-83
2021/07/23 07:40:49;;;;;;;;;;;18.20;99.90;;;;;;5064187;28;20425;-83
2021/07/23 07:43:15;;;;;;;;;;;18.20;99.90;;;;;;5067524;28;20355;-86
2021/07/23 07:45:41;;;;;;;;;;;18.20;99.90;;;;;;5068053;28;20458;-83
2021/07/23 07:48:06;;;;;;;;;;;18.20;99.90;;;;;;5050870;28;20173;-83
2021/07/23 07:50:32;;;;;;;;;;;18.30;99.90;;;;;;5067145;28;19928;-86
2021/07/23 07:52:58;;;;;;;;;;;18.30;99.90;;;;;;5066552;28;20007;-83
2021/07/23 07:55:25;;;;;;;;;;;18.30;99.90;;;;;;5084916;28;19964;-84
2021/07/23 07:57:52;;;;;;;;;;;18.30;99.90;;;;;;5060997;28;19939;-83
2021/07/23 08:00:18;;;;;;;;;;;18.40;99.90;;;;;;5084451;28;19932;-84
2021/07/23 08:02:46;;;;;;;;;;;18.50;99.90;;;;;;5068384;28;20279;-82
2021/07/23 08:05:14;;;;;;;;;;;18.50;99.90;;;;;;5068062;28;19928;-83
2021/07/23 08:07:40;;;;;;;;;;;18.50;99.90;;;;;;5065099;28;20026;-83
2021/07/23 08:10:08;;;;;;;;;;;18.60;99.90;;;;;;5085116;28;20011;-84
2021/07/23 08:12:34;;;;;;;;;;;18.60;99.90;;;;;;5067865;28;19942;-85
2021/07/23 08:15:00;;;;;;;;;;;18.70;99.90;;;;;;5084714;28;19925;-83
2021/07/23 08:17:25;;;;;;;;;;;18.80;99.90;;;;;;5068636;28;19933;-83
2021/07/23 08:19:51;;;;;;;;;;;18.80;99.90;;;;;;5054470;28;20313;-83
2021/07/23 08:22:17;;;;;;;;;;;18.90;99.90;;;;;;5069259;28;20439;-83
2021/07/23 08:24:43;;;;;;;;;;;19.00;99.90;;;;;;5068567;28;20296;-83
2021/07/23 08:27:09;;;;;;;;;;;19.00;99.90;;;;;;5084897;28;20395;-84
2021/07/23 08:29:35;;;;;;;;;;;19.10;99.90;;;;;;5055205;28;19925;-87
2021/07/23 08:32:07;;;;;;;;;;;19.20;99.90;;;;;;5069164;28;19925;-83
2021/07/23 08:34:33;;;;;;;;;;;19.30;99.90;;;;;;5067430;28;19924;-85
2021/07/23 08:36:58;;;;;;;;;;;19.40;99.90;;;;;;5068823;28;19928;-83
2021/07/23 08:39:24;;;;;;;;;;;19.50;99.90;;;;;;5057979;28;19931;-83
2021/07/23 08:41:50;;;;;;;;;;;19.60;99.90;;;;;;5067718;28;19936;-84
2021/07/23 08:44:16;;;;;;;;;;;19.70;99.90;;;;;;5073370;28;19935;-84
2021/07/23 08:46:42;;;;;;;;;;;19.90;99.90;;;;;;5068036;28;20437;-85
2021/07/23 08:49:07;;;;;;;;;;;20.00;99.90;;;;;;5068151;28;19925;-84
2021/07/23 08:51:33;;;;;;;;;;;20.00;99.90;;;;;;5066484;28;19928;-84
2021/07/23 08:53:59;;;;;;;;;;;20.10;99.90;;;;;;5064818;28;20551;-83
2021/07/23 08:56:25;;;;;;;;;;;20.20;99.90;;;;;;5085753;28;19928;-83
2021/07/23 08:58:51;;;;;;;;;;;20.30;99.90;;;;;;5070805;28;19936;-83
2021/07/23 09:01:16;;;;;;;;;;;20.40;99.90;;;;;;5071761;28;20489;-83
2021/07/23 09:03:42;;;;;;;;;;;20.40;99.90;;;;;;5070538;28;20394;-84
2021/07/23 09:06:17;;;;;;;;;;;20.40;99.90;;;;;;5072864;28;20288;-83
2021/07/23 09:08:47;;;;;;;;;;;20.50;99.90;;;;;;5064752;28;20380;-83
2021/07/23 09:11:12;;;;;;;;;;;20.50;99.90;;;;;;5074393;28;19974;-83
2021/07/23 09:13:38;;;;;;;;;;;20.50;99.90;;;;;;5087907;28;19929;-85
2021/07/23 09:16:21;;;;;;;;;;;20.60;99.90;;;;;;5054481;28;19924;-84
2021/07/23 09:18:47;;;;;;;;;;;20.60;99.90;;;;;;5063406;28;20392;-84
2021/07/23 09:21:16;;;;;;;;;;;20.60;99.90;;;;;;5068071;28;19959;-83
2021/07/23 09:23:42;;;;;;;;;;;20.50;99.90;;;;;;5062702;28;19939;-86
2021/07/23 09:26:07;;;;;;;;;;;20.70;99.90;;;;;;5088111;28;20002;-83
2021/07/23 09:28:34;;;;;;;;;;;20.60;99.90;;;;;;5069802;28;20308;-84
2021/07/23 09:31:01;;;;;;;;;;;20.60;99.90;;;;;;5066911;28;19924;-84
2021/07/23 09:33:31;;;;;;;;;;;20.70;99.90;;;;;;5071326;28;19987;-84
2021/07/23 09:35:58;;;;;;;;;;;20.70;99.90;;;;;;5071503;28;19924;-83
2021/07/23 09:38:24;;;;;;;;;;;20.60;99.90;;;;;;5064915;28;19935;-84
2021/07/23 09:40:50;;;;;;;;;;;20.60;99.90;;;;;;5043546;28;20027;-84
2021/07/23 09:43:29;;;;;;;;;;;20.60;99.90;;;;;;5068435;28;20022;-83
2021/07/23 09:46:02;;;;;;;;;;;20.60;99.90;;;;;;5066043;28;20398;-84
2021/07/23 09:48:27;;;;;;;;;;;20.40;99.90;;;;;;5068872;28;20307;-84
2021/07/23 09:50:54;;;;;;;;;;;20.30;99.90;;;;;;5083693;28;19928;-85
2021/07/23 09:53:20;;;;;;;;;;;20.30;99.90;;;;;;5084268;28;19938;-85
2021/07/23 09:55:49;;;;;;;;;;;20.50;99.90;;;;;;5083141;28;19928;-86
2021/07/23 09:58:19;;;;;;;;;;;20.50;99.90;;;;;;5067612;28;19924;-84
2021/07/23 10:00:48;;;;;;;;;;;20.60;99.90;;;;;;5062747;28;19929;-84
2021/07/23 10:03:16;;;;;;;;;;;20.50;99.90;;;;;;5059703;28;19929;-83
2021/07/23 10:05:54;;;;;;;;;;;20.50;99.90;;;;;;5059031;28;19958;-86
2021/07/23 10:08:21;;;;;;;;;;;20.50;99.90;;;;;;5064522;28;20083;-83
2021/07/23 10:10:50;;;;;;;;;;;20.30;99.90;;;;;;5059301;28;20339;-83
2021/07/23 10:13:21;;;;;;;;;;;20.30;99.90;;;;;;5061483;28;19931;-83
2021/07/23 10:15:47;;;;;;;;;;;20.30;99.90;;;;;;5065267;28;19931;-84
2021/07/23 10:18:14;;;;;;;;;;;20.20;99.90;;;;;;5070002;28;19932;-84
2021/07/23 10:20:40;;;;;;;;;;;20.10;99.90;;;;;;5049411;28;19994;-83
2021/07/23 10:23:05;;;;;;;;;;;20.10;99.90;;;;;;5068881;28;20043;-85
2021/07/23 10:25:34;;;;;;;;;;;20.00;99.90;;;;;;5072039;28;20011;-83
2021/07/23 10:28:00;;;;;;;;;;;20.00;99.90;;;;;;5052669;28;19931;-84
2021/07/23 10:30:33;;;;;;;;;;;20.10;99.90;;;;;;5069883;28;20098;-84
2021/07/23 10:33:00;;;;;;;;;;;20.20;99.90;;;;;;5069975;28;19967;-84
2021/07/23 10:35:25;;;;;;;;;;;20.10;99.90;;;;;;5066658;28;20002;-84
2021/07/23 10:37:52;;;;;;;;;;;20.10;99.90;;;;;;5066746;28;20445;-83
2021/07/23 10:40:18;;;;;;;;;;;20.20;99.90;;;;;;5065489;28;19932;-84
2021/07/23 10:42:44;;;;;;;;;;;20.20;99.90;;;;;;5067027;28;19924;-86
2021/07/23 10:45:12;;;;;;;;;;;20.40;99.90;;;;;;5068073;28;20015;-83
2021/07/23 10:47:45;;;;;;;;;;;20.30;99.90;;;;;;5076849;28;20314;-84
2021/07/23 10:50:34;;;;;;;;;;;20.40;99.90;;;;;;5069834;28;19959;-84
2021/07/23 10:53:19;;;;;;;;;;;20.40;99.90;;;;;;5067634;28;19924;-83
2021/07/23 10:55:45;;;;;;;;;;;20.40;99.90;;;;;;5062591;28;20441;-86
2021/07/23 10:58:11;;;;;;;;;;;20.50;99.90;;;;;;5085737;28;19924;-83
2021/07/23 11:00:47;;;;;;;;;;;20.60;99.90;;;;;;5070588;28;19948;-84
2021/07/23 11:03:32;;;;;;;;;;;20.70;99.90;;;;;;5064649;28;19928;-85
2021/07/23 11:05:59;;;;;;;;;;;20.80;99.90;;;;;;5074145;28;19932;-84
2021/07/23 11:08:24;;;;;;;;;;;20.70;99.90;;;;;;5070382;28;19931;-83
2021/07/23 11:10:54;;;;;;;;;;;20.70;99.90;;;;;;5067462;28;19932;-84
2021/07/23 11:13:20;;;;;;;;;;;20.70;99.90;;;;;;5070648;28;20299;-84
2021/07/23 11:15:45;;;;;;;;;;;20.70;99.90;;;;;;5070031;28;20376;-85
2021/07/23 11:18:15;;;;;;;;;;;20.60;99.90;;;;;;5069610;28;19931;-84
2021/07/23 11:20:41;;;;;;;;;;;20.50;99.90;;;;;;5069881;28;19931;-86
2021/07/23 11:23:07;;;;;;;;;;;20.50;99.90;;;;;;5065726;28;20521;-84
2021/07/23 11:25:33;;;;;;;;;;;20.60;99.90;;;;;;5068389;28;20137;-83
2021/07/23 11:28:03;;;;;;;;;;;20.60;99.90;;;;;;5067219;28;20399;-83
2021/07/23 11:30:31;;;;;;;;;;;20.50;99.90;;;;;;5058392;28;19925;-83
2021/07/23 11:32:58;;;;;;;;;;;20.50;99.90;;;;;;5066797;28;20684;-83
2021/07/23 11:35:24;;;;;;;;;;;20.50;99.90;;;;;;5085767;28;19924;-84
2021/07/23 11:37:51;;;;;;;;;;;20.40;99.90;;;;;;5084693;28;19932;-87
2021/07/23 11:40:17;;;;;;;;;;;20.40;99.90;;;;;;5068143;28;20288;-83
2021/07/23 11:42:45;;;;;;;;;;;20.30;99.90;;;;;;5069801;28;19932;-85
2021/07/23 11:45:15;;;;;;;;;;;20.30;99.90;;;;;;5069046;28;19928;-84
2021/07/23 11:47:42;;;;;;;;;;;20.30;99.90;;;;;;5069841;28;20398;-84
2021/07/23 11:50:12;;;;;;;;;;;20.30;99.90;;;;;;5068798;28;19974;-84
2021/07/23 11:52:38;;;;;;;;;;;20.20;99.90;;;;;;5068008;28;19986;-83
2021/07/23 11:55:04;;;;;;;;;;;20.20;99.90;;;;;;5065048;28;19925;-84
2021/07/23 11:57:31;;;;;;;;;;;20.30;99.90;;;;;;5069829;28;19928;-83
2021/07/23 11:59:57;;;;;;;;;;;20.20;99.90;;;;;;5066859;28;19924;-85
2021/07/23 12:02:23;;;;;;;;;;;20.00;99.90;;;;;;5085576;28;19924;-84
2021/07/23 12:05:00;;;;;;;;;;;19.80;99.90;;;;;;5068255;28;20042;-87
2021/07/23 12:07:26;;;;;;;;;;;19.70;99.90;;;;;;5057908;28;19924;-83
2021/07/23 12:09:52;;;;;;;;;;;19.60;99.90;;;;;;5063761;28;20028;-87
2021/07/23 12:12:17;;;;;;;;;;;19.40;99.90;;;;;;5062929;28;20061;-84
2021/07/23 12:14:43;;;;;;;;;;;19.40;99.90;;;;;;5069476;28;19938;-84
2021/07/23 12:17:09;;;;;;;;;;;19.40;99.90;;;;;;5050101;28;19930;-83
2021/07/23 12:19:35;;;;;;;;;;;19.40;99.90;;;;;;5084013;28;19939;-85
2021/07/23 12:22:10;;;;;;;;;;;19.40;99.90;;;;;;5060350;28;20019;-83
2021/07/23 12:24:36;;;;;;;;;;;19.40;99.90;;;;;;5067852;28;19924;-83
2021/07/23 12:27:18;;;;;;;;;;;19.40;99.90;;;;;;5067330;28;19928;-84
2021/07/23 12:29:44;;;;;;;;;;;19.50;99.90;;;;;;5066566;28;19935;-84
2021/07/23 12:32:28;;;;;;;;;;;19.50;99.90;;;;;;5043794;28;19928;-84
2021/07/23 12:34:55;;;;;;;;;;;19.60;99.90;;;;;;5050977;28;19932;-86
2021/07/23 12:37:20;;;;;;;;;;;19.60;99.90;;;;;;5065784;28;19935;-84
2021/07/23 12:39:49;;;;;;;;;;;19.60;99.90;;;;;;5071862;28;20273;-83
2021/07/23 12:42:19;;;;;;;;;;;19.60;99.90;;;;;;5071067;28;20012;-84
2021/07/23 12:44:45;;;;;;;;;;;19.60;99.90;;;;;;5073009;28;19968;-83
2021/07/23 12:47:27;;;;;;;;;;;19.60;99.90;;;;;;5072500;28;19967;-83
2021/07/23 12:49:56;;;;;;;;;;;19.60;99.90;;;;;;5069376;28;19931;-84
2021/07/23 12:52:25;;;;;;;;;;;19.70;99.90;;;;;;5072244;28;19928;-84
2021/07/23 12:54:51;;;;;;;;;;;19.80;99.90;;;;;;5072780;28;20363;-84
2021/07/23 12:57:29;;;;;;;;;;;19.80;99.90;;;;;;5069768;28;19931;-84
2021/07/23 12:59:54;;;;;;;;;;;19.80;99.90;;;;;;5075536;28;20393;-85
2021/07/23 13:02:20;;;;;;;;;;;19.80;99.90;;;;;;5054105;28;19931;-84
2021/07/23 13:04:47;;;;;;;;;;;19.70;99.90;;;;;;5071748;28;19932;-83
2021/07/23 13:07:14;;;;;;;;;;;19.60;99.90;;;;;;5070483;28;19928;-84
2021/07/23 13:09:44;;;;;;;;;;;19.50;99.90;;;;;;5070116;28;19924;-83
2021/07/23 13:12:11;;;;;;;;;;;19.50;99.90;;;;;;5065484;28;19928;-85
2021/07/23 13:14:37;;;;;;;;;;;19.40;99.90;;;;;;5072079;28;19986;-84
2021/07/23 13:17:03;;;;;;;;;;;19.40;99.90;;;;;;5071709;28;19972;-84
2021/07/23 13:19:28;;;;;;;;;;;19.40;99.90;;;;;;5054750;28;19925;-84
2021/07/23 13:21:54;;;;;;;;;;;19.50;99.90;;;;;;5067223;28;19924;-84
2021/07/23 13:24:20;;;;;;;;;;;19.70;99.90;;;;;;5071607;28;19924;-84
2021/07/23 13:26:45;;;;;;;;;;;19.80;99.90;;;;;;5054878;28;20029;-85
2021/07/23 13:29:11;;;;;;;;;;;19.80;99.90;;;;;;5071551;28;19925;-84
2021/07/23 13:31:37;;;;;;;;;;;19.90;99.90;;;;;;5069668;28;20153;-84
2021/07/23 13:34:03;;;;;;;;;;;19.90;99.90;;;;;;5071645;28;19924;-84
2021/07/23 13:36:31;;;;;;;;;;;19.90;99.90;;;;;;5072152;28;20028;-84
2021/07/23 13:38:57;;;;;;;;;;;19.90;99.90;;;;;;5087966;28;19928;-83
2021/07/23 13:41:24;;;;;;;;;;;20.00;99.90;;;;;;5086685;28;20380;-83
2021/07/23 13:43:49;;;;;;;;;;;20.00;99.90;;;;;;5072696;28;19958;-85
2021/07/23 13:46:16;;;;;;;;;;;20.00;99.90;;;;;;5053432;28;19924;-83
2021/07/23 13:48:46;;;;;;;;;;;20.20;99.90;;;;;;5071262;28;19928;-85
2021/07/23 13:51:12;;;;;;;;;;;20.20;99.90;;;;;;5072376;28;20302;-83
2021/07/23 13:53:38;;;;;;;;;;;20.30;99.90;;;;;;5053973;28;19959;-84
2021/07/23 13:56:04;;;;;;;;;;;20.20;99.90;;;;;;5067035;28;20081;-84
2021/07/23 13:58:29;;;;;;;;;;;20.30;99.90;;;;;;5065690;28;19983;-85
2021/07/23 14:00:55;;;;;;;;;;;20.20;99.90;;;;;;5074619;28;20012;-84
2021/07/23 14:03:21;;;;;;;;;;;20.20;99.90;;;;;;5066408;28;19920;-84
2021/07/23 14:05:46;;;;;;;;;;;20.30;99.90;;;;;;5067418;28;19925;-84
2021/07/23 14:08:14;;;;;;;;;;;20.50;99.90;;;;;;5083703;28;19932;-86
2021/07/23 14:10:40;;;;;;;;;;;20.50;99.90;;;;;;5084039;28;19931;-84
2021/07/23 14:13:06;;;;;;;;;;;20.60;99.90;;;;;;5058814;28;19928;-84